NPT8BF EGNX-EGAA
Flight info
| Callsign | NPT8BF |
|---|---|
| Flight time | 0h 44m |
| Altitude | 24000 |
| Route | TNT Q4 VABKA/N0421F280 UL8 BILVO UP6 TUPEM DCT REMSI DCT UVPOK M147 ROBOP M146 IPSET P6 BELZU |
| Aircraft | B738/M-SDE2E3FGHIRWXY/LB1 |
Departure
| Time | 2026-05-06 11:39 |
|---|---|
| Airport | East Midlands Airport (EGNX) |
Arrival
| Time | 2026-05-06 12:24 |
|---|---|
| Airport | Belfast International Airport (EGAA) |
| Time | Latitude | Longitude | Altitude | Speed | Heading |
|---|---|---|---|---|---|
| 2026-05-06 11:24 | 52.82798 | -1.32140 | 300 ft | 0 kts | 178° |
| 2026-05-06 11:29 | 52.82805 | -1.32140 | 300 ft | 4 kts | 179° |
| 2026-05-06 11:29 | 52.82832 | -1.32139 | 300 ft | 4 kts | 187° |
| 2026-05-06 11:30 | 52.82857 | -1.32128 | 303 ft | 4 kts | 210° |
| 2026-05-06 11:30 | 52.82871 | -1.32105 | 303 ft | 4 kts | 282° |
| 2026-05-06 11:30 | 52.82870 | -1.32099 | 303 ft | 1 kts | 292° |
| 2026-05-06 11:33 | 52.82872 | -1.32107 | 303 ft | 2 kts | 292° |
| 2026-05-06 11:33 | 52.82881 | -1.32132 | 302 ft | 3 kts | 302° |
| 2026-05-06 11:33 | 52.82899 | -1.32157 | 302 ft | 5 kts | 334° |
| 2026-05-06 11:33 | 52.82941 | -1.32223 | 300 ft | 10 kts | 287° |
| 2026-05-06 11:34 | 52.82939 | -1.32331 | 300 ft | 9 kts | 268° |
| 2026-05-06 11:34 | 52.82938 | -1.32418 | 300 ft | 9 kts | 268° |
| 2026-05-06 11:35 | 52.82938 | -1.32427 | 300 ft | 9 kts | 268° |
| 2026-05-06 11:35 | 52.82936 | -1.32536 | 300 ft | 12 kts | 268° |
| 2026-05-06 11:35 | 52.82933 | -1.32700 | 300 ft | 15 kts | 268° |
| 2026-05-06 11:35 | 52.82930 | -1.32864 | 303 ft | 14 kts | 268° |
| 2026-05-06 11:36 | 52.82928 | -1.33024 | 301 ft | 14 kts | 268° |
| 2026-05-06 11:36 | 52.82924 | -1.33176 | 301 ft | 13 kts | 266° |
| 2026-05-06 11:36 | 52.82921 | -1.33333 | 306 ft | 15 kts | 269° |
| 2026-05-06 11:36 | 52.82917 | -1.33542 | 304 ft | 22 kts | 268° |
| 2026-05-06 11:37 | 52.82912 | -1.33829 | 304 ft | 28 kts | 268° |
| 2026-05-06 11:37 | 52.82906 | -1.34167 | 301 ft | 30 kts | 268° |
| 2026-05-06 11:37 | 52.82905 | -1.34504 | 304 ft | 28 kts | 268° |
| 2026-05-06 11:37 | 52.82900 | -1.34796 | 305 ft | 24 kts | 270° |
| 2026-05-06 11:38 | 52.82928 | -1.34932 | 305 ft | 12 kts | 334° |
| 2026-05-06 11:38 | 52.83007 | -1.34939 | 304 ft | 12 kts | 359° |
| 2026-05-06 11:38 | 52.83068 | -1.34874 | 305 ft | 11 kts | 76° |
| 2026-05-06 11:38 | 52.83065 | -1.34743 | 301 ft | 11 kts | 89° |
| 2026-05-06 11:39 | 52.83067 | -1.34612 | 301 ft | 13 kts | 86° |
| 2026-05-06 11:39 | 52.83079 | -1.33995 | 303 ft | 98 kts | 89° |
| 2026-05-06 11:39 | 52.83112 | -1.32436 | 393 ft | 166 kts | 85° |
| 2026-05-06 11:39 | 52.83157 | -1.30385 | 1276 ft | 185 kts | 84° |
| 2026-05-06 11:40 | 52.82922 | -1.28326 | 2591 ft | 192 kts | 113° |
| 2026-05-06 11:40 | 52.82263 | -1.26322 | 3310 ft | 203 kts | 103° |
| 2026-05-06 11:40 | 52.82284 | -1.23950 | 3597 ft | 219 kts | 63° |
| 2026-05-06 11:40 | 52.83208 | -1.21977 | 4214 ft | 222 kts | 36° |
| 2026-05-06 11:41 | 52.84656 | -1.21035 | 4760 ft | 236 kts | 6° |
| 2026-05-06 11:41 | 52.86316 | -1.21589 | 5273 ft | 256 kts | 334° |
| 2026-05-06 11:41 | 52.87687 | -1.23512 | 6210 ft | 262 kts | 311° |
| 2026-05-06 11:41 | 52.88757 | -1.25974 | 7190 ft | 265 kts | 305° |
| 2026-05-06 11:42 | 52.89769 | -1.28560 | 8067 ft | 270 kts | 304° |
| 2026-05-06 11:42 | 52.90793 | -1.31193 | 8989 ft | 273 kts | 304° |
| 2026-05-06 11:42 | 52.91828 | -1.33815 | 9917 ft | 276 kts | 304° |
| 2026-05-06 11:42 | 52.92891 | -1.36467 | 10720 ft | 283 kts | 304° |
| 2026-05-06 11:43 | 52.94039 | -1.39305 | 10929 ft | 310 kts | 304° |
| 2026-05-06 11:43 | 52.95289 | -1.42350 | 11396 ft | 325 kts | 304° |
| 2026-05-06 11:43 | 52.96575 | -1.45499 | 12052 ft | 335 kts | 304° |
| 2026-05-06 11:44 | 52.99242 | -1.51985 | 13730 ft | 341 kts | 304° |
| 2026-05-06 11:44 | 53.00586 | -1.55255 | 14382 ft | 347 kts | 304° |
| 2026-05-06 11:44 | 53.01942 | -1.58555 | 15107 ft | 350 kts | 304° |
| 2026-05-06 11:44 | 53.03321 | -1.61916 | 15826 ft | 354 kts | 304° |
| 2026-05-06 11:45 | 53.04693 | -1.65348 | 16509 ft | 359 kts | 300° |
| 2026-05-06 11:45 | 53.05788 | -1.69098 | 17224 ft | 363 kts | 290° |
| 2026-05-06 11:45 | 53.06530 | -1.73127 | 17934 ft | 366 kts | 286° |
| 2026-05-06 11:45 | 53.07209 | -1.77227 | 18590 ft | 370 kts | 285° |
| 2026-05-06 11:46 | 53.07886 | -1.81379 | 19188 ft | 374 kts | 285° |
| 2026-05-06 11:46 | 53.08574 | -1.85572 | 19796 ft | 377 kts | 285° |
| 2026-05-06 11:46 | 53.09275 | -1.89796 | 20413 ft | 380 kts | 285° |
| 2026-05-06 11:46 | 53.09984 | -1.94041 | 21013 ft | 383 kts | 285° |
| 2026-05-06 11:47 | 53.10704 | -1.98339 | 21594 ft | 387 kts | 285° |
| 2026-05-06 11:47 | 53.11406 | -2.02532 | 22144 ft | 390 kts | 285° |
| 2026-05-06 11:47 | 53.12137 | -2.06898 | 22737 ft | 393 kts | 285° |
| 2026-05-06 11:47 | 53.12870 | -2.11287 | 23326 ft | 395 kts | 285° |
| 2026-05-06 11:48 | 53.13607 | -2.15716 | 23809 ft | 399 kts | 285° |
| 2026-05-06 11:48 | 53.14408 | -2.20165 | 24257 ft | 402 kts | 289° |
| 2026-05-06 11:48 | 53.15558 | -2.24429 | 24728 ft | 405 kts | 295° |
| 2026-05-06 11:48 | 53.16830 | -2.28630 | 25190 ft | 407 kts | 296° |
| 2026-05-06 11:49 | 53.18120 | -2.32852 | 25619 ft | 410 kts | 295° |
| 2026-05-06 11:49 | 53.19412 | -2.37103 | 26041 ft | 412 kts | 295° |
| 2026-05-06 11:49 | 53.20680 | -2.41323 | 26540 ft | 412 kts | 295° |
| 2026-05-06 11:49 | 53.21954 | -2.45596 | 27172 ft | 409 kts | 295° |
| 2026-05-06 11:50 | 53.23211 | -2.49836 | 27824 ft | 406 kts | 294° |
| 2026-05-06 11:50 | 53.24466 | -2.54087 | 28033 ft | 411 kts | 294° |
| 2026-05-06 11:50 | 53.26978 | -2.62614 | 28034 ft | 405 kts | 294° |
| 2026-05-06 11:51 | 53.29700 | -2.70861 | 28049 ft | 413 kts | 306° |
| 2026-05-06 11:51 | 53.31653 | -2.74456 | 28066 ft | 424 kts | 315° |
| 2026-05-06 11:51 | 53.34015 | -2.77522 | 28053 ft | 436 kts | 325° |
| 2026-05-06 11:52 | 53.39407 | -2.82615 | 28058 ft | 451 kts | 328° |
| 2026-05-06 11:52 | 53.44959 | -2.87831 | 28075 ft | 462 kts | 327° |
| 2026-05-06 11:53 | 53.50431 | -2.93342 | 28067 ft | 460 kts | 324° |
| 2026-05-06 11:53 | 53.55740 | -2.99307 | 28074 ft | 458 kts | 323° |
| 2026-05-06 11:54 | 53.60978 | -3.05129 | 28073 ft | 458 kts | 324° |
| 2026-05-06 11:54 | 53.66301 | -3.11026 | 28075 ft | 457 kts | 324° |
| 2026-05-06 11:55 | 53.71518 | -3.17173 | 28053 ft | 455 kts | 316° |
| 2026-05-06 11:55 | 53.75589 | -3.25106 | 28049 ft | 449 kts | 300° |
| 2026-05-06 11:56 | 53.78784 | -3.34169 | 28053 ft | 448 kts | 299° |
| 2026-05-06 11:56 | 53.81999 | -3.43210 | 28059 ft | 448 kts | 300° |
| 2026-05-06 11:57 | 53.85239 | -3.52216 | 28063 ft | 448 kts | 300° |
| 2026-05-06 11:57 | 53.88457 | -3.61261 | 28068 ft | 448 kts | 299° |
| 2026-05-06 11:58 | 53.91670 | -3.70328 | 28065 ft | 448 kts | 300° |
| 2026-05-06 11:58 | 53.94795 | -3.79405 | 28071 ft | 448 kts | 295° |
| 2026-05-06 11:59 | 53.96713 | -3.89411 | 28065 ft | 446 kts | 278° |
| 2026-05-06 11:59 | 53.97565 | -3.99852 | 28061 ft | 444 kts | 277° |
| 2026-05-06 12:00 | 53.97980 | -4.04797 | 28045 ft | 425 kts | 278° |
| 2026-05-06 12:00 | 53.98406 | -4.09667 | 27839 ft | 410 kts | 278° |
| 2026-05-06 12:00 | 53.98825 | -4.14410 | 27497 ft | 400 kts | 279° |
| 2026-05-06 12:00 | 53.99490 | -4.18967 | 27051 ft | 394 kts | 288° |
| 2026-05-06 12:01 | 54.00521 | -4.23248 | 26622 ft | 389 kts | 295° |
| 2026-05-06 12:01 | 54.01885 | -4.27176 | 26151 ft | 385 kts | 304° |
| 2026-05-06 12:01 | 54.03438 | -4.30857 | 25722 ft | 381 kts | 304° |
| 2026-05-06 12:01 | 54.04989 | -4.34482 | 25278 ft | 377 kts | 304° |
| 2026-05-06 12:02 | 54.06496 | -4.38049 | 24842 ft | 374 kts | 304° |
| 2026-05-06 12:02 | 54.07994 | -4.41641 | 24410 ft | 370 kts | 304° |
| 2026-05-06 12:02 | 54.09473 | -4.45215 | 23976 ft | 367 kts | 303° |
| 2026-05-06 12:02 | 54.10929 | -4.48769 | 23524 ft | 365 kts | 303° |
| 2026-05-06 12:03 | 54.12374 | -4.52307 | 23018 ft | 362 kts | 303° |
| 2026-05-06 12:03 | 54.13805 | -4.55813 | 22567 ft | 358 kts | 303° |
| 2026-05-06 12:03 | 54.15220 | -4.59279 | 22169 ft | 354 kts | 303° |
| 2026-05-06 12:03 | 54.16623 | -4.62720 | 21755 ft | 351 kts | 303° |
| 2026-05-06 12:04 | 54.18012 | -4.66127 | 21307 ft | 348 kts | 303° |
| 2026-05-06 12:04 | 54.19389 | -4.69497 | 20888 ft | 345 kts | 303° |
| 2026-05-06 12:04 | 54.20760 | -4.72855 | 20471 ft | 343 kts | 303° |
| 2026-05-06 12:04 | 54.22099 | -4.76137 | 20067 ft | 340 kts | 303° |
| 2026-05-06 12:05 | 54.23445 | -4.79442 | 19668 ft | 337 kts | 303° |
| 2026-05-06 12:05 | 54.24779 | -4.82719 | 19275 ft | 335 kts | 303° |
| 2026-05-06 12:05 | 54.26105 | -4.85986 | 18888 ft | 333 kts | 303° |
| 2026-05-06 12:05 | 54.27419 | -4.89227 | 18496 ft | 330 kts | 303° |
| 2026-05-06 12:06 | 54.28723 | -4.92446 | 18077 ft | 329 kts | 303° |
| 2026-05-06 12:06 | 54.30021 | -4.95654 | 17645 ft | 326 kts | 303° |
| 2026-05-06 12:06 | 54.31307 | -4.98838 | 17264 ft | 323 kts | 303° |
| 2026-05-06 12:06 | 54.32545 | -5.01908 | 16883 ft | 320 kts | 303° |
| 2026-05-06 12:07 | 54.33808 | -5.05041 | 16496 ft | 318 kts | 303° |
| 2026-05-06 12:07 | 54.35059 | -5.08150 | 16118 ft | 316 kts | 303° |
| 2026-05-06 12:07 | 54.36303 | -5.11245 | 15741 ft | 313 kts | 303° |
| 2026-05-06 12:07 | 54.37533 | -5.14310 | 15353 ft | 311 kts | 303° |
| 2026-05-06 12:08 | 54.38759 | -5.17370 | 14993 ft | 310 kts | 303° |
| 2026-05-06 12:08 | 54.39959 | -5.20367 | 14635 ft | 308 kts | 303° |
| 2026-05-06 12:08 | 54.41171 | -5.23394 | 14271 ft | 307 kts | 303° |
| 2026-05-06 12:08 | 54.42373 | -5.26401 | 13908 ft | 305 kts | 303° |
| 2026-05-06 12:09 | 54.43573 | -5.29409 | 13502 ft | 304 kts | 303° |
| 2026-05-06 12:09 | 54.44766 | -5.32401 | 13110 ft | 303 kts | 303° |
| 2026-05-06 12:09 | 54.46084 | -5.35228 | 12677 ft | 304 kts | 311° |
| 2026-05-06 12:09 | 54.47556 | -5.37822 | 12281 ft | 303 kts | 313° |
| 2026-05-06 12:10 | 54.49040 | -5.40378 | 11911 ft | 301 kts | 313° |
| 2026-05-06 12:10 | 54.50504 | -5.42930 | 11542 ft | 299 kts | 313° |
| 2026-05-06 12:10 | 54.51780 | -5.45716 | 11171 ft | 295 kts | 298° |
| 2026-05-06 12:10 | 54.52582 | -5.48950 | 10832 ft | 292 kts | 288° |
| 2026-05-06 12:11 | 54.53208 | -5.52265 | 10514 ft | 289 kts | 287° |
| 2026-05-06 12:11 | 54.53796 | -5.55520 | 10411 ft | 279 kts | 286° |
| 2026-05-06 12:11 | 54.54365 | -5.58673 | 10220 ft | 275 kts | 286° |
| 2026-05-06 12:11 | 54.54643 | -5.61938 | 9962 ft | 283 kts | 267° |
| 2026-05-06 12:12 | 54.54486 | -5.65335 | 9718 ft | 292 kts | 265° |
| 2026-05-06 12:12 | 54.54302 | -5.68818 | 9439 ft | 292 kts | 265° |
| 2026-05-06 12:12 | 54.54122 | -5.72260 | 9157 ft | 286 kts | 264° |
| 2026-05-06 12:12 | 54.53950 | -5.75630 | 8882 ft | 278 kts | 265° |
| 2026-05-06 12:13 | 54.53789 | -5.78895 | 8606 ft | 271 kts | 264° |
| 2026-05-06 12:13 | 54.53634 | -5.82097 | 8338 ft | 267 kts | 265° |
| 2026-05-06 12:13 | 54.53482 | -5.85274 | 8076 ft | 264 kts | 264° |
| 2026-05-06 12:13 | 54.53333 | -5.88405 | 7830 ft | 261 kts | 264° |
| 2026-05-06 12:14 | 54.53184 | -5.91511 | 7567 ft | 260 kts | 264° |
| 2026-05-06 12:14 | 54.53037 | -5.94610 | 7316 ft | 259 kts | 264° |
| 2026-05-06 12:14 | 54.52890 | -5.97689 | 7061 ft | 258 kts | 263° |
| 2026-05-06 12:14 | 54.52746 | -6.00675 | 6817 ft | 257 kts | 264° |
| 2026-05-06 12:15 | 54.52599 | -6.03742 | 6563 ft | 256 kts | 263° |
| 2026-05-06 12:15 | 54.52452 | -6.06788 | 6300 ft | 254 kts | 263° |
| 2026-05-06 12:15 | 54.52305 | -6.09816 | 6030 ft | 254 kts | 263° |
| 2026-05-06 12:15 | 54.52158 | -6.12839 | 5775 ft | 254 kts | 263° |
| 2026-05-06 12:16 | 54.52009 | -6.15879 | 5508 ft | 255 kts | 262° |
| 2026-05-06 12:16 | 54.51858 | -6.18912 | 5249 ft | 254 kts | 263° |
| 2026-05-06 12:16 | 54.51708 | -6.21927 | 4985 ft | 252 kts | 262° |
| 2026-05-06 12:16 | 54.51560 | -6.24929 | 4729 ft | 251 kts | 262° |
| 2026-05-06 12:17 | 54.51412 | -6.27886 | 4473 ft | 251 kts | 263° |
| 2026-05-06 12:17 | 54.51261 | -6.30914 | 4205 ft | 251 kts | 262° |
| 2026-05-06 12:17 | 54.51114 | -6.33849 | 4027 ft | 246 kts | 261° |
| 2026-05-06 12:17 | 54.50969 | -6.36715 | 3995 ft | 236 kts | 262° |
| 2026-05-06 12:18 | 54.50827 | -6.39496 | 3979 ft | 229 kts | 261° |
| 2026-05-06 12:18 | 54.50913 | -6.42183 | 3970 ft | 227 kts | 287° |
| 2026-05-06 12:18 | 54.51813 | -6.44376 | 3865 ft | 231 kts | 321° |
| 2026-05-06 12:18 | 54.53209 | -6.45727 | 3683 ft | 229 kts | 334° |
| 2026-05-06 12:19 | 54.54658 | -6.46878 | 3452 ft | 228 kts | 335° |
| 2026-05-06 12:19 | 54.56078 | -6.47950 | 3256 ft | 217 kts | 343° |
| 2026-05-06 12:19 | 54.57524 | -6.47979 | 3047 ft | 203 kts | 19° |
| 2026-05-06 12:19 | 54.58684 | -6.46800 | 2881 ft | 187 kts | 46° |
| 2026-05-06 12:20 | 54.59393 | -6.45066 | 2717 ft | 175 kts | 66° |
| 2026-05-06 12:20 | 54.59934 | -6.43198 | 2578 ft | 172 kts | 70° |
| 2026-05-06 12:20 | 54.60442 | -6.41339 | 2441 ft | 169 kts | 70° |
| 2026-05-06 12:20 | 54.60933 | -6.39516 | 2212 ft | 165 kts | 70° |
| 2026-05-06 12:21 | 54.61404 | -6.37760 | 2015 ft | 157 kts | 71° |
| 2026-05-06 12:21 | 54.61840 | -6.36137 | 1847 ft | 143 kts | 71° |
| 2026-05-06 12:21 | 54.62114 | -6.35137 | 1762 ft | 137 kts | 71° |
| 2026-05-06 12:21 | 54.62648 | -6.33151 | 1434 ft | 137 kts | 72° |
| 2026-05-06 12:22 | 54.63037 | -6.31672 | 1301 ft | 135 kts | 71° |
| 2026-05-06 12:22 | 54.63429 | -6.30192 | 1091 ft | 136 kts | 68° |
| 2026-05-06 12:22 | 54.63706 | -6.29193 | 1012 ft | 137 kts | 69° |
| 2026-05-06 12:22 | 54.64109 | -6.27679 | 850 ft | 143 kts | 71° |
| 2026-05-06 12:23 | 54.64532 | -6.26098 | 667 ft | 144 kts | 70° |
| 2026-05-06 12:23 | 54.64950 | -6.24572 | 441 ft | 138 kts | 68° |
| 2026-05-06 12:23 | 54.65345 | -6.23096 | 288 ft | 131 kts | 65° |
| 2026-05-06 12:23 | 54.65683 | -6.21825 | 271 ft | 98 kts | 65° |
| 2026-05-06 12:24 | 54.65829 | -6.21247 | 275 ft | 8 kts | 55° |
| 2026-05-06 12:24 | 54.65859 | -6.21235 | 271 ft | 4 kts | 324° |
| 2026-05-06 12:24 | 54.65875 | -6.21310 | 271 ft | 10 kts | 302° |
| 2026-05-06 12:24 | 54.65932 | -6.21378 | 273 ft | 10 kts | 333° |
| 2026-05-06 12:25 | 54.65960 | -6.21475 | 271 ft | 10 kts | 254° |
| 2026-05-06 12:25 | 54.65930 | -6.21579 | 273 ft | 10 kts | 244° |
| 2026-05-06 12:25 | 54.65903 | -6.21683 | 271 ft | 9 kts | 246° |
| 2026-05-06 12:25 | 54.65878 | -6.21785 | 271 ft | 9 kts | 246° |
| 2026-05-06 12:26 | 54.65852 | -6.21882 | 271 ft | 9 kts | 245° |
| 2026-05-06 12:26 | 54.65844 | -6.21981 | 271 ft | 9 kts | 293° |
| 2026-05-06 12:26 | 54.65893 | -6.22039 | 271 ft | 9 kts | 335° |
| 2026-05-06 12:26 | 54.65945 | -6.22085 | 271 ft | 8 kts | 323° |
| 2026-05-06 12:27 | 54.65948 | -6.22177 | 273 ft | 8 kts | 248° |
| 2026-05-06 12:27 | 54.65908 | -6.22228 | 271 ft | 1 kts | 180° |
| 2026-05-06 12:27 | 54.65895 | -6.22224 | 271 ft | 0 kts | 161° |
| 2026-05-06 12:27 | 54.65887 | -6.22218 | 271 ft | 1 kts | 155° |
| 2026-05-06 12:28 | 54.65884 | -6.22216 | 271 ft | 0 kts | 155° |